createdAt,value
2022-09-01T00:00:15.296Z,99541.06
2022-09-01T00:02:44.827Z,99542.06
2022-09-01T00:05:13.506Z,99549.53
2022-09-01T00:07:42.172Z,99543.34
2022-09-01T00:10:11.318Z,99543.34
2022-09-01T00:12:40.183Z,99541.44
2022-09-01T00:15:11.672Z,99532.34
2022-09-01T00:17:41.204Z,99548.41
2022-09-01T00:20:11.145Z,99556.53
2022-09-01T00:22:39.663Z,99554.75
2022-09-01T00:25:08.934Z,99559.34
2022-09-01T00:27:36.971Z,99562.69
2022-09-01T00:30:07.991Z,99568.13
2022-09-01T00:32:36.559Z,99558.19
2022-09-01T00:35:06.187Z,99571.72
2022-09-01T00:37:34.657Z,99572.88
2022-09-01T00:40:02.575Z,99569.75
2022-09-01T00:42:30.995Z,99570.63
2022-09-01T00:44:58.727Z,99563.78
2022-09-01T00:47:27.537Z,99574.66
2022-09-01T00:49:55.319Z,99584.69
2022-09-01T00:52:52.187Z,99588.53
2022-09-01T00:55:29.602Z,99591.94
2022-09-01T00:58:02.114Z,99601.59
2022-09-01T01:00:34.615Z,99605.91
2022-09-01T01:03:02.457Z,99618.69
2022-09-01T01:05:52.060Z,99629.16
2022-09-01T01:08:36.784Z,99636.28
2022-09-01T01:11:17.982Z,99658.75
2022-09-01T01:14:12.483Z,99650.44
2022-09-01T01:16:44.845Z,99648.53
2022-09-01T01:19:45.749Z,99649.78
2022-09-01T01:22:49.973Z,99642.75
2022-09-01T01:25:19.133Z,99639.78
2022-09-01T01:27:47.133Z,99644.06
2022-09-01T01:30:19.190Z,99639.16
2022-09-01T01:32:47.960Z,99631.59
2022-09-01T01:35:19.186Z,99629.19
2022-09-01T01:37:49.091Z,99624.75
2022-09-01T01:40:22.935Z,99629.00
2022-09-01T01:42:54.369Z,99633.94
2022-09-01T01:45:25.219Z,99621.09
2022-09-01T01:47:55.196Z,99609.81
2022-09-01T01:50:36.027Z,99615.34
2022-09-01T01:53:10.987Z,99611.78
2022-09-01T01:55:42.035Z,99621.16
2022-09-01T01:58:18.102Z,99627.75
2022-09-01T02:00:48.395Z,99631.84
2022-09-01T02:03:23.053Z,99631.84
2022-09-01T02:05:55.677Z,99626.75
2022-09-01T02:08:27.696Z,99633.72
2022-09-01T02:10:57.958Z,99629.44
2022-09-01T02:13:28.703Z,99620.84
2022-09-01T02:16:07.866Z,99626.44
2022-09-01T02:18:48.284Z,99622.16
2022-09-01T02:21:20.934Z,99618.16
2022-09-01T02:24:02.180Z,99617.50
2022-09-01T02:26:47.570Z,99611.81
2022-09-01T02:29:23.018Z,99611.72
2022-09-01T02:31:53.877Z,99605.09
2022-09-01T02:34:26.006Z,99606.16
2022-09-01T02:36:56.517Z,99605.47
2022-09-01T02:39:33.725Z,99595.31
2022-09-01T02:42:05.541Z,99596.44
2022-09-01T02:44:36.255Z,99593.56
2022-09-01T02:47:10.045Z,99580.97
2022-09-01T02:49:43.150Z,99581.25
2022-09-01T02:52:16.026Z,99588.81
2022-09-01T02:54:45.684Z,99575.63
2022-09-01T02:57:13.706Z,99572.19
2022-09-01T02:59:43.882Z,99568.09
2022-09-01T03:02:11.856Z,99571.00
2022-09-01T03:04:39.631Z,99565.59
2022-09-01T03:07:08.875Z,99561.94
2022-09-01T03:09:41.767Z,99559.84
2022-09-01T03:12:10.742Z,99556.03
2022-09-01T03:14:38.523Z,99560.25
2022-09-01T03:17:08.443Z,99558.91
2022-09-01T03:19:43.905Z,99559.50
2022-09-01T03:22:13.488Z,99550.88
2022-09-01T03:24:41.287Z,99551.00
2022-09-01T03:27:11.822Z,99550.06
2022-09-01T03:29:39.500Z,99549.94
2022-09-01T03:32:10.792Z,99546.63
2022-09-01T03:34:39.640Z,99547.75
2022-09-01T03:37:09.822Z,99551.53
2022-09-01T03:39:37.591Z,99544.06
2022-09-01T03:42:09.101Z,99545.22
2022-09-01T03:44:41.101Z,99537.75
2022-09-01T03:47:11.487Z,99544.75
2022-09-01T03:49:39.567Z,99546.50
2022-09-01T03:52:09.080Z,99537.38
2022-09-01T03:54:39.147Z,99543.97
2022-09-01T03:57:10.311Z,99542.31
2022-09-01T03:59:45.397Z,99542.59
2022-09-01T04:02:15.281Z,99543.81
2022-09-01T04:04:43.069Z,99544.00
2022-09-01T04:07:19.186Z,99545.94
2022-09-01T04:09:48.019Z,99543.06
2022-09-01T04:12:15.912Z,99552.03
2022-09-01T04:14:43.602Z,99557.00
2022-09-01T04:17:30.676Z,99555.63
2022-09-01T04:19:58.520Z,99549.81
2022-09-01T04:22:32.131Z,99554.44
2022-09-01T04:25:00.119Z,99551.09
2022-09-01T04:27:29.020Z,99561.38
2022-09-01T04:29:57.876Z,99567.59
2022-09-01T04:32:28.237Z,99561.56
2022-09-01T04:35:00.341Z,99562.41
2022-09-01T04:37:37.972Z,99567.78
2022-09-01T04:40:06.991Z,99569.56
2022-09-01T04:42:35.605Z,99568.81
2022-09-01T04:45:10.193Z,99567.31
2022-09-01T04:47:42.446Z,99569.41
2022-09-01T04:50:17.809Z,99557.06
2022-09-01T04:52:51.282Z,99566.72
2022-09-01T04:55:20.007Z,99559.47
2022-09-01T04:57:50.730Z,99564.69
2022-09-01T05:00:24.798Z,99567.50
2022-09-01T05:03:04.721Z,99563.53
2022-09-01T05:05:45.299Z,99552.38
2022-09-01T05:08:24.539Z,99548.69
2022-09-01T05:10:57.021Z,99549.59
2022-09-01T05:13:27.456Z,99550.72
2022-09-01T05:16:13.343Z,99553.25
2022-09-01T05:18:47.791Z,99543.69
2022-09-01T05:21:24.705Z,99539.25
2022-09-01T05:23:54.465Z,99539.50
2022-09-01T05:26:31.687Z,99542.75
2022-09-01T05:29:05.192Z,99534.38
2022-09-01T05:31:38.019Z,99534.88
2022-09-01T05:34:10.257Z,99536.16
2022-09-01T05:36:44.418Z,99535.56
2022-09-01T05:39:12.428Z,99539.59
2022-09-01T05:41:41.233Z,99543.81
2022-09-01T05:44:11.918Z,99541.94
2022-09-01T05:46:40.388Z,99537.53
2022-09-01T05:49:13.665Z,99542.69
2022-09-01T05:51:51.852Z,99539.13
2022-09-01T05:54:27.530Z,99536.16
2022-09-01T05:57:13.100Z,99545.59
2022-09-01T05:59:54.218Z,99542.25
2022-09-01T06:02:26.372Z,99543.81
2022-09-01T06:04:57.419Z,99542.94
2022-09-01T06:07:28.691Z,99542.16
2022-09-01T06:09:57.143Z,99549.56
2022-09-01T06:12:25.034Z,99554.97
2022-09-01T06:14:55.444Z,99552.38
2022-09-01T06:17:28.465Z,99560.72
2022-09-01T06:19:57.950Z,99563.53
2022-09-01T06:22:29.666Z,99562.69
2022-09-01T06:25:02.299Z,99568.63
2022-09-01T06:27:38.909Z,99574.13
2022-09-01T06:30:15.249Z,99570.44
2022-09-01T06:32:45.166Z,99574.03
2022-09-01T06:35:18.183Z,99572.25
2022-09-01T06:37:48.689Z,99571.41
2022-09-01T06:40:17.900Z,99571.53
2022-09-01T06:42:51.149Z,99566.09
2022-09-01T06:45:24.143Z,99569.75
2022-09-01T06:47:57.686Z,99577.75
2022-09-01T06:53:37.267Z,99583.94
2022-09-01T06:56:09.131Z,99582.91
2022-09-01T06:58:38.447Z,99591.16
2022-09-01T07:01:19.728Z,99580.47
2022-09-01T07:03:54.941Z,99591.41
2022-09-01T07:09:21.650Z,99589.38
2022-09-01T07:17:31.603Z,99586.94
2022-09-01T07:23:10.183Z,99590.56
2022-09-01T07:39:53.416Z,99599.44
2022-09-01T07:42:55.573Z,99592.44
2022-09-01T07:45:28.872Z,99590.69
2022-09-01T07:48:03.512Z,99591.97
2022-09-01T07:51:07.449Z,99592.06
2022-09-01T07:53:31.689Z,99599.31
2022-09-01T07:56:09.206Z,99599.63
2022-09-01T07:58:42.051Z,99600.16
2022-09-01T08:01:21.200Z,99609.41
2022-09-01T08:03:56.280Z,99611.75
2022-09-01T08:06:28.330Z,99614.94
2022-09-01T08:09:00.528Z,99612.03
2022-09-01T08:14:19.611Z,99624.88
2022-09-01T08:19:24.222Z,99624.38
2022-09-01T08:21:54.055Z,99618.41
2022-09-01T08:24:22.379Z,99628.19
2022-09-01T08:26:50.105Z,99625.00
2022-09-01T08:29:17.979Z,99626.22
2022-09-01T08:31:48.128Z,99630.78
2022-09-01T08:34:17.142Z,99634.94
2022-09-01T08:36:44.861Z,99624.81
2022-09-01T08:39:12.600Z,99626.97
2022-09-01T08:42:12.507Z,99628.28
2022-09-01T08:44:55.059Z,99629.72
2022-09-01T08:47:39.407Z,99617.66
2022-09-01T08:50:12.413Z,99635.44
2022-09-01T08:52:48.041Z,99627.41
2022-09-01T08:55:39.333Z,99627.41
2022-09-01T08:58:15.865Z,99630.56
2022-09-01T09:00:57.869Z,99627.06
2022-09-01T09:03:41.097Z,99633.81
2022-09-01T09:07:27.402Z,99631.22
2022-09-01T09:10:11.209Z,99629.16
2022-09-01T09:13:20.232Z,99623.81
2022-09-01T09:16:18.961Z,99623.69
2022-09-01T09:19:00.542Z,99625.28
2022-09-01T09:21:47.520Z,99623.63
2022-09-01T09:24:50.049Z,99623.72
2022-09-01T09:27:43.037Z,99624.38
2022-09-01T09:30:29.839Z,99621.31
2022-09-01T09:35:57.638Z,99609.78
2022-09-01T09:38:29.538Z,99612.59
2022-09-01T09:41:16.419Z,99611.38
2022-09-01T09:44:16.194Z,99609.47
2022-09-01T09:46:48.936Z,99611.84
2022-09-01T09:49:36.359Z,99605.81
2022-09-01T09:52:18.540Z,99602.81
2022-09-01T09:55:31.195Z,99595.53
2022-09-01T09:58:10.305Z,99598.78
2022-09-01T10:00:39.374Z,99598.69
2022-09-01T10:03:14.612Z,99596.16
2022-09-01T10:05:51.843Z,99591.13
2022-09-01T10:08:27.464Z,99587.25
2022-09-01T10:10:58.259Z,99583.50
2022-09-01T10:13:33.049Z,99585.59
2022-09-01T10:16:26.899Z,99587.66
2022-09-01T10:19:00.884Z,99592.03
2022-09-01T10:21:41.309Z,99590.09
2022-09-01T10:24:38.787Z,99598.13
2022-09-01T10:27:21.006Z,99602.00
2022-09-01T10:30:19.602Z,99594.50
2022-09-01T10:33:06.743Z,99590.56
2022-09-01T10:35:55.199Z,99590.94
2022-09-01T10:38:29.119Z,99586.75
2022-09-01T10:41:14.006Z,99592.63
2022-09-01T10:43:50.057Z,99593.78
2022-09-01T10:46:26.587Z,99587.47
2022-09-01T10:49:03.190Z,99597.94
2022-09-01T10:51:38.302Z,99594.16
2022-09-01T10:54:07.501Z,99588.34
2022-09-01T10:56:54.093Z,99588.84
2022-09-01T10:59:35.797Z,99587.81
2022-09-01T11:02:27.734Z,99587.34
2022-09-01T11:05:00.328Z,99592.53
2022-09-01T11:08:00.112Z,99584.75
2022-09-01T11:10:49.808Z,99589.59
2022-09-01T11:13:59.058Z,99597.94
2022-09-01T11:16:50.493Z,99593.00
2022-09-01T11:19:55.524Z,99588.84
2022-09-01T11:22:45.176Z,99583.69
2022-09-01T11:25:43.880Z,99592.22
2022-09-01T11:28:24.282Z,99593.34
2022-09-01T11:31:11.329Z,99587.41
2022-09-01T11:34:18.521Z,99589.22
2022-09-01T11:37:01.331Z,99592.59
2022-09-01T11:39:56.110Z,99594.50
2022-09-01T11:42:40.734Z,99597.41
2022-09-01T11:45:33.107Z,99592.13
2022-09-01T11:48:11.970Z,99590.75
2022-09-01T11:50:43.043Z,99587.50
2022-09-01T11:53:23.575Z,99581.84
2022-09-01T11:55:57.134Z,99588.03
2022-09-01T11:58:29.092Z,99580.19
2022-09-01T12:01:11.909Z,99582.25
2022-09-01T12:03:42.237Z,99582.41
2022-09-01T12:06:19.561Z,99588.75
2022-09-01T12:09:02.262Z,99580.53
2022-09-01T12:11:35.446Z,99579.78
2022-09-01T12:14:12.064Z,99577.91
2022-09-01T12:16:45.182Z,99577.41
2022-09-01T12:19:34.334Z,99581.00
2022-09-01T12:22:17.490Z,99587.00
2022-09-01T12:24:54.401Z,99579.09
2022-09-01T12:27:23.870Z,99578.84
2022-09-01T12:29:53.948Z,99586.53
2022-09-01T12:32:23.560Z,99582.53
2022-09-01T12:35:11.367Z,99581.28
2022-09-01T12:37:42.077Z,99574.03
2022-09-01T12:40:36.313Z,99575.78
2022-09-01T12:43:05.786Z,99587.88
2022-09-01T12:45:47.851Z,99576.66
2022-09-01T12:48:34.584Z,99574.91
2022-09-01T12:51:30.836Z,99569.44
2022-09-01T12:54:04.719Z,99581.59
2022-09-01T12:56:39.758Z,99575.66
2022-09-01T12:59:26.284Z,99576.66
2022-09-01T13:02:40.109Z,99569.59
2022-09-01T13:05:36.121Z,99570.38
2022-09-01T13:08:18.345Z,99576.16
2022-09-01T13:11:01.995Z,99581.69
2022-09-01T13:13:32.007Z,99572.72
2022-09-01T13:16:08.693Z,99576.59
2022-09-01T13:21:30.203Z,99575.25
2022-09-01T13:23:59.771Z,99574.88
2022-09-01T13:26:31.385Z,99564.28
2022-09-01T13:29:01.548Z,99565.31
2022-09-01T13:31:32.029Z,99570.13
2022-09-01T13:34:10.808Z,99564.84
2022-09-01T13:36:46.424Z,99574.59
2022-09-01T13:39:18.844Z,99574.88
2022-09-01T13:41:49.650Z,99579.16
2022-09-01T13:44:19.503Z,99580.28
2022-09-01T13:49:43.664Z,99578.00
2022-09-01T13:52:14.352Z,99574.00
2022-09-01T13:54:44.699Z,99571.31
2022-09-01T13:57:16.938Z,99583.63
2022-09-01T13:59:46.464Z,99578.59
2022-09-01T14:02:16.129Z,99577.59
2022-09-01T14:04:45.988Z,99576.59
2022-09-01T14:07:16.373Z,99573.88
2022-09-01T14:09:45.869Z,99579.72
2022-09-01T14:12:15.290Z,99573.69
2022-09-01T14:17:37.082Z,99569.25
2022-09-01T14:20:13.486Z,99564.16
2022-09-01T14:22:43.008Z,99564.97
2022-09-01T14:25:13.901Z,99560.94
2022-09-01T14:27:44.702Z,99566.31
2022-09-01T14:30:30.514Z,99565.19
2022-09-01T14:33:02.832Z,99572.53
2022-09-01T14:35:34.295Z,99567.03
2022-09-01T14:38:06.141Z,99568.63
2022-09-01T14:40:38.808Z,99570.78
2022-09-01T14:43:12.787Z,99564.66
2022-09-01T14:45:48.333Z,99576.63
2022-09-01T14:48:20.902Z,99576.72
2022-09-01T14:50:52.893Z,99578.47
2022-09-01T14:53:24.089Z,99579.84
2022-09-01T14:55:55.624Z,99575.47
2022-09-01T14:58:27.079Z,99580.91
2022-09-01T15:01:03.513Z,99582.78
2022-09-01T15:03:38.024Z,99583.28
2022-09-01T15:06:07.857Z,99576.44
2022-09-01T15:08:37.353Z,99580.38
2022-09-01T15:11:13.882Z,99571.38
2022-09-01T15:13:46.306Z,99574.91
2022-09-01T15:16:23.061Z,99577.72
2022-09-01T15:18:53.042Z,99579.75
2022-09-01T15:21:32.147Z,99581.19
2022-09-01T15:24:03.446Z,99571.56
2022-09-01T15:26:32.209Z,99573.97
2022-09-01T15:29:02.181Z,99577.03
2022-09-01T15:31:33.520Z,99576.56
2022-09-01T15:34:04.682Z,99582.16
2022-09-01T15:36:44.638Z,99574.50
2022-09-01T15:39:13.453Z,99567.16
2022-09-01T15:41:45.779Z,99574.19
2022-09-01T15:44:14.148Z,99566.47
2022-09-01T15:46:43.265Z,99572.78
2022-09-01T15:49:13.508Z,99578.00
2022-09-01T15:51:45.173Z,99577.69
2022-09-01T15:54:19.959Z,99577.66
2022-09-01T15:56:49.929Z,99582.41
2022-09-01T15:59:19.471Z,99578.63
2022-09-01T16:01:49.041Z,99574.88
2022-09-01T16:04:20.940Z,99574.59
2022-09-01T16:06:52.883Z,99570.94
2022-09-01T16:09:24.063Z,99581.94
2022-09-01T16:11:54.797Z,99581.47
2022-09-01T16:14:24.407Z,99581.09
2022-09-01T16:17:16.517Z,99577.34
2022-09-01T16:20:02.173Z,99581.13
2022-09-01T16:22:54.452Z,99579.44
2022-09-01T16:25:35.436Z,99579.47
2022-09-01T16:28:25.944Z,99575.53
2022-09-01T16:31:05.603Z,99571.25
2022-09-01T16:36:49.283Z,99580.84
2022-09-01T16:39:47.297Z,99589.03
2022-09-01T16:43:07.758Z,99585.13
2022-09-01T16:46:18.984Z,99594.66
2022-09-01T16:49:02.065Z,99591.75
2022-09-01T16:52:11.331Z,99592.78
2022-09-01T16:55:55.631Z,99578.94
2022-09-01T16:58:49.409Z,99590.28
2022-09-01T17:01:56.473Z,99595.38
2022-09-01T17:04:49.514Z,99587.81
2022-09-01T17:07:32.410Z,99592.13
2022-09-01T17:10:37.396Z,99579.19
2022-09-01T17:13:23.558Z,99588.16
2022-09-01T17:16:16.414Z,99587.75
2022-09-01T17:19:05.043Z,99592.25
2022-09-01T17:21:46.134Z,99582.44
2022-09-01T17:24:46.914Z,99582.94
2022-09-01T17:27:51.890Z,99588.50
2022-09-01T17:30:21.320Z,99586.88
2022-09-01T17:34:03.905Z,99585.44
2022-09-01T17:37:43.156Z,99585.28
2022-09-01T17:40:50.508Z,99587.47
2022-09-01T17:43:53.412Z,99593.47
2022-09-01T17:47:12.757Z,99587.78
2022-09-01T17:50:20.153Z,99592.00
2022-09-01T17:53:10.352Z,99592.66
2022-09-01T17:56:29.548Z,99593.88
2022-09-01T17:59:31.862Z,99596.06
2022-09-01T18:02:39.835Z,99609.13
2022-09-01T18:05:20.145Z,99610.25
2022-09-01T18:08:37.836Z,99614.13
2022-09-01T18:11:23.827Z,99620.56
2022-09-01T18:14:03.004Z,99621.97
2022-09-01T18:16:59.007Z,99622.81
2022-09-01T18:19:39.031Z,99617.72
2022-09-01T18:22:26.060Z,99628.28
2022-09-01T18:25:08.360Z,99643.03
2022-09-01T18:27:37.687Z,99637.03
2022-09-01T18:30:06.867Z,99642.31
2022-09-01T18:33:05.434Z,99641.44
2022-09-01T18:36:11.546Z,99639.28
2022-09-01T18:38:53.142Z,99649.41
2022-09-01T18:42:11.024Z,99648.34
2022-09-01T18:45:11.998Z,99648.13
2022-09-01T18:48:33.818Z,99650.91
2022-09-01T18:51:21.263Z,99649.22
2022-09-01T18:54:34.659Z,99656.59
2022-09-01T18:57:08.563Z,99648.59
2022-09-01T18:59:55.018Z,99650.97
2022-09-01T19:03:02.609Z,99652.66
2022-09-01T19:06:08.425Z,99661.59
2022-09-01T19:09:06.248Z,99664.13
2022-09-01T19:11:48.668Z,99664.13
2022-09-01T19:14:37.444Z,99659.28
2022-09-01T19:18:47.438Z,99661.53
2022-09-01T19:21:32.483Z,99667.19
2022-09-01T19:24:13.920Z,99663.63
2022-09-01T19:27:01.994Z,99664.97
2022-09-01T19:29:49.743Z,99660.28
2022-09-01T19:32:23.013Z,99668.78
2022-09-01T19:35:17.019Z,99667.41
2022-09-01T19:37:50.697Z,99673.25
2022-09-01T19:40:30.814Z,99673.84
2022-09-01T19:43:17.891Z,99666.16
2022-09-01T19:46:13.441Z,99671.91
2022-09-01T19:49:00.815Z,99676.94
2022-09-01T19:51:51.253Z,99678.72
2022-09-01T19:54:45.121Z,99690.28
2022-09-01T19:57:45.715Z,99682.22
2022-09-01T20:00:50.752Z,99695.13
2022-09-01T20:03:23.290Z,99685.50
2022-09-01T20:06:02.517Z,99696.09
2022-09-01T20:09:20.921Z,99694.66
2022-09-01T20:12:28.534Z,99689.00
2022-09-01T20:15:22.003Z,99698.75
2022-09-01T20:18:04.436Z,99701.94
2022-09-01T20:20:45.231Z,99707.75
2022-09-01T20:23:31.464Z,99712.09
2022-09-01T20:26:23.369Z,99711.59
2022-09-01T20:29:41.716Z,99716.38
2022-09-01T20:32:20.515Z,99714.13
2022-09-01T20:34:59.081Z,99706.09
2022-09-01T20:38:35.895Z,99709.81
2022-09-01T20:41:42.990Z,99715.88
2022-09-01T20:44:36.058Z,99705.22
2022-09-01T20:47:06.454Z,99703.09
2022-09-01T20:49:38.472Z,99711.19
2022-09-01T20:52:56.340Z,99716.34
2022-09-01T20:55:38.559Z,99715.75
2022-09-01T20:59:19.480Z,99722.63
2022-09-01T21:02:10.678Z,99721.09
2022-09-01T21:04:56.550Z,99723.19
2022-09-01T21:07:46.740Z,99726.19
2022-09-01T21:10:49.001Z,99722.50
2022-09-01T21:14:13.929Z,99731.72
2022-09-01T21:16:55.243Z,99728.94
2022-09-01T21:19:36.009Z,99726.94
2022-09-01T21:22:19.682Z,99735.09
2022-09-01T21:24:50.123Z,99740.13
2022-09-01T21:27:37.013Z,99734.00
2022-09-01T21:30:12.856Z,99740.16
2022-09-01T21:32:40.926Z,99739.84
2022-09-01T21:35:18.929Z,99745.06
2022-09-01T21:37:46.957Z,99743.63
2022-09-01T21:40:16.944Z,99738.47
2022-09-01T21:43:00.108Z,99745.00
2022-09-01T21:45:28.541Z,99733.94
2022-09-01T21:47:56.762Z,99743.78
2022-09-01T21:50:25.788Z,99743.41
2022-09-01T21:52:53.818Z,99740.97
2022-09-01T21:55:25.093Z,99743.31
2022-09-01T21:57:53.342Z,99743.22
2022-09-01T22:00:29.997Z,99740.75
2022-09-01T22:02:59.611Z,99735.28
2022-09-01T22:05:29.005Z,99730.41
2022-09-01T22:07:58.545Z,99732.63
2022-09-01T22:10:29.701Z,99729.56
2022-09-01T22:13:03.717Z,99728.06
2022-09-01T22:15:31.943Z,99724.78
2022-09-01T22:17:59.797Z,99721.53
2022-09-01T22:20:29.336Z,99727.84
2022-09-01T22:23:01.937Z,99717.88
2022-09-01T22:25:32.738Z,99719.19
2022-09-01T22:28:05.948Z,99717.13
2022-09-01T22:30:35.044Z,99717.69
2022-09-01T22:33:07.735Z,99709.56
2022-09-01T22:35:40.324Z,99706.72
2022-09-01T22:38:08.330Z,99707.84
2022-09-01T22:40:36.782Z,99707.50
2022-09-01T22:43:05.711Z,99703.63
2022-09-01T22:45:33.540Z,99698.94
2022-09-01T22:48:02.178Z,99711.56
2022-09-01T22:50:29.882Z,99707.28
2022-09-01T22:52:57.550Z,99705.94
2022-09-01T22:55:26.460Z,99708.94
2022-09-01T22:57:54.132Z,99712.81
2022-09-01T23:00:22.251Z,99706.66
2022-09-01T23:02:50.138Z,99705.47
2022-09-01T23:05:18.712Z,99711.41
2022-09-01T23:07:46.410Z,99710.69
2022-09-01T23:10:15.685Z,99712.72
2022-09-01T23:12:43.477Z,99708.94
2022-09-01T23:15:11.735Z,99705.75
2022-09-01T23:17:40.525Z,99700.81
2022-09-01T23:20:15.237Z,99694.91
2022-09-01T23:22:45.926Z,99686.47
2022-09-01T23:25:16.696Z,99693.28
2022-09-01T23:27:47.971Z,99697.56
2022-09-01T23:30:16.905Z,99693.28
2022-09-01T23:32:44.744Z,99683.88
2022-09-01T23:35:13.084Z,99684.47
2022-09-01T23:37:40.863Z,99675.81
2022-09-01T23:40:10.588Z,99679.75
2022-09-01T23:42:38.683Z,99673.47
2022-09-01T23:45:07.214Z,99667.75
2022-09-01T23:47:36.814Z,99672.91
2022-09-01T23:50:06.270Z,99674.72
2022-09-01T23:52:34.731Z,99673.66
2022-09-01T23:55:02.572Z,99668.22
2022-09-01T23:57:30.287Z,99668.38
2022-09-01T23:59:59.117Z,99659.16
